Time;durP1;ratioP1;P1;durP2;ratioP2;P2;SDS_P1;SDS_P2;PMS_P1;PMS_P2;Temp;Humidity;BMP_temperature;BMP_pressure;BME280_temperature;BME280_humidity;BME280_pressure;Samples;Min_cycle;Max_cycle;Signal;HPM_P1;HPM_P2
2024/03/22 00:00:51;;;;;;;5.00;3.03;;;;;;;9.53;100.00;101784.63;2089684;28;20202;-69
2024/03/22 00:01:53;;;;;;;7.37;3.20;;;;;;;9.07;100.00;101729.31;2089430;28;20181;-69
2024/03/22 00:02:53;;;;;;;4.00;2.50;;;;;;;9.71;100.00;101832.44;2088949;28;20192;-69
2024/03/22 00:03:54;;;;;;;3.93;2.70;;;;;;;9.52;100.00;101799.63;2089679;28;20530;-69
2024/03/22 00:04:54;;;;;;;4.67;2.80;;;;;;;9.69;100.00;101827.28;2090478;28;20217;-69
2024/03/22 00:05:55;;;;;;;4.73;2.90;;;;;;;9.55;100.00;101804.38;2088975;28;20203;-69
2024/03/22 00:06:55;;;;;;;6.07;2.83;;;;;;;9.11;100.00;101740.38;2092329;28;20195;-69
2024/03/22 00:07:56;;;;;;;5.53;2.80;;;;;;;9.66;100.00;101822.56;2094103;28;20848;-69
2024/03/22 00:08:56;;;;;;;3.77;2.30;;;;;;;9.68;100.00;101828.50;2089893;28;20726;-69
2024/03/22 00:09:57;;;;;;;4.33;2.60;;;;;;;8.88;100.00;101718.69;2093856;28;20639;-69
2024/03/22 00:10:57;;;;;;;6.50;2.50;;;;;;;9.12;100.00;101742.00;2091602;28;20213;-69
2024/03/22 00:11:58;;;;;;;3.73;2.70;;;;;;;9.64;100.00;101832.47;2091062;28;20238;-69
2024/03/22 00:12:58;;;;;;;4.30;2.30;;;;;;;9.62;100.00;101824.53;2090591;28;20257;-69
2024/03/22 00:13:59;;;;;;;3.97;2.13;;;;;;;9.62;100.00;101824.53;2091956;28;20197;-69
2024/03/22 00:14:59;;;;;;;3.70;2.30;;;;;;;9.62;100.00;101834.81;2091085;28;20198;-69
2024/03/22 00:16:00;;;;;;;3.77;2.33;;;;;;;9.62;100.00;101838.38;2096134;28;20418;-69
2024/03/22 00:17:00;;;;;;;3.07;2.20;;;;;;;9.50;100.00;101821.38;2090394;28;20187;-69
2024/03/22 00:18:00;;;;;;;6.20;2.30;;;;;;;9.61;100.00;101834.03;2090391;28;20293;-69
2024/03/22 00:19:01;;;;;;;3.37;2.23;;;;;;;9.60;100.00;101832.47;2091312;28;20195;-69
2024/03/22 00:20:02;;;;;;;3.73;2.10;;;;;;;9.35;100.00;101797.69;2091707;28;20186;-69
2024/03/22 00:21:03;;;;;;;3.33;2.30;;;;;;;9.30;100.00;101818.25;2090795;28;20278;-69
2024/03/22 00:22:03;;;;;;;3.07;2.13;;;;;;;9.48;100.00;101843.16;2092768;28;20253;-69
2024/03/22 00:23:04;;;;;;;3.50;2.07;;;;;;;8.74;100.00;101717.88;2090810;28;20463;-69
2024/03/22 00:24:04;;;;;;;4.07;2.60;;;;;;;9.48;100.00;101837.59;2089475;28;20262;-69
2024/03/22 00:25:06;;;;;;;3.17;2.27;;;;;;;7.75;100.00;101561.44;2089015;28;20726;-69
2024/03/22 00:26:07;;;;;;;3.77;2.43;;;;;;;8.66;100.00;101717.06;2090911;28;20176;-69
2024/03/22 00:27:08;;;;;;;3.90;2.27;;;;;;;9.24;100.00;101805.19;2092930;28;20426;-69
2024/03/22 00:28:09;;;;;;;3.27;2.17;;;;;;;9.30;100.00;101822.97;2091446;28;20844;-69
2024/03/22 00:29:10;;;;;;;3.77;1.83;;;;;;;9.41;100.00;101840.34;2091269;28;20529;-69
2024/03/22 00:30:10;;;;;;;3.50;2.37;;;;;;;9.12;100.00;101792.53;2089975;28;20591;-69
2024/03/22 00:31:11;;;;;;;3.43;2.10;;;;;;;9.08;100.00;101793.72;2091839;28;20205;-69
2024/03/22 00:32:11;;;;;;;4.43;2.57;;;;;;;8.81;100.00;101754.59;2092118;28;20191;-69
2024/03/22 00:33:12;;;;;;;3.13;2.20;;;;;;;9.37;100.00;101836.81;2091451;28;20319;-69
2024/03/22 00:34:12;;;;;;;4.13;2.27;;;;;;;9.34;100.00;101843.94;2089923;28;20192;-69
2024/03/22 00:35:13;;;;;;;3.50;2.17;;;;;;;9.35;100.00;101836.41;2091477;28;20228;-69
2024/03/22 00:36:13;;;;;;;4.30;2.70;;;;;;;9.02;100.00;101790.56;2093206;28;20184;-69
2024/03/22 00:37:15;;;;;;;4.07;2.10;;;;;;;9.21;100.00;101819.78;2091817;28;20267;-69
2024/03/22 00:38:16;;;;;;;6.73;2.60;;;;;;;8.81;100.00;101771.19;2091409;28;20489;-69
2024/03/22 00:39:16;;;;;;;4.17;2.63;;;;;;;9.28;100.00;101845.50;2090863;28;20183;-69
2024/03/22 00:40:17;;;;;;;4.13;2.40;;;;;;;8.72;100.00;101765.22;2090745;28;20230;-69
2024/03/22 00:41:18;;;;;;;3.20;1.87;;;;;;;9.29;100.00;101849.06;2089720;28;20276;-69
2024/03/22 00:42:18;;;;;;;3.80;2.13;;;;;;;9.02;100.00;101807.13;2089758;28;20498;-70
2024/03/22 00:43:20;;;;;;;6.87;2.23;;;;;;;9.25;100.00;101849.06;2091024;28;20183;-69
2024/03/22 00:44:21;;;;;;;3.33;1.67;;;;;;;9.24;100.00;101850.25;2093200;28;20644;-69
2024/03/22 00:45:21;;;;;;;3.63;2.10;;;;;;;9.11;100.00;101826.09;2092832;28;20912;-69
2024/03/22 00:46:22;;;;;;;3.67;2.17;;;;;;;8.53;100.00;101746.28;2093549;28;20188;-69
2024/03/22 00:47:22;;;;;;;3.57;2.10;;;;;;;9.17;100.00;101852.22;2091033;28;20309;-69
2024/03/22 00:48:23;;;;;;;5.10;2.67;;;;;;;8.30;100.00;101714.63;2091014;28;20606;-69
2024/03/22 00:49:23;;;;;;;3.67;2.20;;;;;;;8.84;100.00;101816.59;2091633;28;20192;-69
2024/03/22 00:50:24;;;;;;;2.67;1.83;;;;;;;8.24;100.00;101724.47;2091348;28;20221;-69
2024/03/22 00:51:28;;;;;;;3.93;2.10;;;;;;;7.72;100.00;101640.28;2091379;28;20230;-69
2024/03/22 00:52:28;;;;;;;3.93;2.00;;;;;;;9.06;100.00;101862.44;2090042;28;20196;-69
2024/03/22 00:53:30;;;;;;;4.13;2.37;;;;;;;8.35;100.00;101733.59;2090318;28;20579;-69
2024/03/22 00:54:30;;;;;;;4.07;2.13;;;;;;;8.68;100.00;101791.28;2092404;28;20831;-69
2024/03/22 00:55:31;;;;;;;4.20;2.30;;;;;;;8.80;100.00;101824.88;2092829;28;20433;-69
2024/03/22 00:56:31;;;;;;;4.77;2.37;;;;;;;9.00;100.00;101858.47;2095689;28;20221;-69
2024/03/22 00:57:32;;;;;;;3.93;2.30;;;;;;;8.38;100.00;101772.28;2093731;28;20445;-69
2024/03/22 00:58:33;;;;;;;3.23;1.93;;;;;;;8.98;100.00;101863.63;2089927;28;20197;-69
2024/03/22 00:59:33;;;;;;;3.57;1.90;;;;;;;8.64;100.00;101805.09;2092782;28;20317;-69
2024/03/22 01:00:34;;;;;;;3.00;2.13;;;;;;;8.76;100.00;101831.59;2091605;28;21062;-69
2024/03/22 01:01:34;;;;;;;3.93;2.17;;;;;;;8.38;100.00;101775.03;2093152;28;20861;-69
2024/03/22 01:02:35;;;;;;;6.40;2.27;;;;;;;8.75;100.00;101836.31;2090054;28;20647;-69
2024/03/22 01:03:35;;;;;;;3.70;1.97;;;;;;;8.36;100.00;101774.63;2093374;28;20199;-69
2024/03/22 01:04:36;;;;;;;3.57;2.10;;;;;;;8.91;100.00;101858.88;2092786;28;20236;-69
2024/03/22 01:05:37;;;;;;;3.83;2.00;;;;;;;8.58;100.00;101814.16;2090673;28;20677;-69
2024/03/22 01:06:39;;;;;;;3.13;1.80;;;;;;;8.86;100.00;101864.78;2083165;28;20196;-69
2024/03/22 01:07:40;;;;;;;3.57;2.17;;;;;;;8.87;100.00;101866.34;2092115;28;20274;-69
2024/03/22 01:08:40;;;;;;;3.17;1.80;;;;;;;8.82;100.00;101857.66;2093253;28;20438;-69
2024/03/22 01:09:41;;;;;;;3.07;1.80;;;;;;;6.97;100.00;101576.09;2091255;28;20280;-69
2024/03/22 01:10:42;;;;;;;3.53;1.90;;;;;;;8.79;100.00;101861.19;2090652;28;20193;-69
2024/03/22 01:11:42;;;;;;;3.63;2.20;;;;;;;7.79;100.00;101711.25;2091501;28;20645;-69
2024/03/22 01:12:43;;;;;;;3.77;2.00;;;;;;;8.81;100.00;101865.16;2091333;28;20207;-69
2024/03/22 01:13:43;;;;;;;3.27;1.63;;;;;;;8.78;100.00;101868.72;2090447;28;20269;-69
2024/03/22 01:14:44;;;;;;;4.10;2.20;;;;;;;7.98;100.00;101747.63;2091097;28;20190;-69
2024/03/22 01:15:45;;;;;;;4.37;1.80;;;;;;;8.01;100.00;101752.38;2091223;28;20215;-69
2024/03/22 01:16:46;;;;;;;4.10;1.97;;;;;;;8.70;100.00;101867.09;2089891;28;20285;-69
2024/03/22 01:17:47;;;;;;;3.03;1.90;;;;;;;7.62;100.00;101698.94;2088767;28;20452;-69
2024/03/22 01:18:48;;;;;;;3.77;2.20;;;;;;;8.51;100.00;101833.47;2092100;28;20250;-69
2024/03/22 01:19:48;;;;;;;3.60;2.13;;;;;;;8.67;100.00;101872.63;2092739;28;20179;-69
2024/03/22 01:20:49;;;;;;;3.07;1.80;;;;;;;8.47;100.00;101839.00;2091715;28;20443;-69
2024/03/22 01:21:49;;;;;;;2.80;1.60;;;;;;;8.67;100.00;101865.09;2092652;28;20205;-69
2024/03/22 01:22:50;;;;;;;4.63;2.03;;;;;;;8.37;100.00;101825.13;2088671;28;20199;-69
2024/03/22 01:23:52;;;;;;;3.17;1.90;;;;;;;8.59;100.00;101859.94;2090038;28;20190;-69
2024/03/22 01:24:53;;;;;;;3.47;2.10;;;;;;;7.99;100.00;101798.88;2092545;28;20227;-69
2024/03/22 01:25:54;;;;;;;3.20;1.97;;;;;;;8.57;100.00;101865.06;2089614;28;20259;-69
2024/03/22 01:26:54;;;;;;;2.67;1.90;;;;;;;8.00;100.00;101777.59;2093397;28;20464;-69
2024/03/22 01:27:55;;;;;;;3.57;1.87;;;;;;;8.53;100.00;101867.03;2089706;28;20206;-69
2024/03/22 01:28:56;;;;;;;2.83;1.95;;;;;;;8.28;100.00;101831.03;2089600;28;20229;-69
2024/03/22 01:29:56;;;;;;;4.03;2.07;;;;;;;7.82;100.00;101762.91;2090947;28;20213;-69
2024/03/22 01:30:57;;;;;;;2.80;1.73;;;;;;;7.86;100.00;101777.53;2089780;28;20482;-69
2024/03/22 01:32:00;;;;;;;2.63;1.70;;;;;;;7.65;100.00;101749.81;2091226;28;20226;-70
2024/03/22 01:33:01;;;;;;;3.37;1.87;;;;;;;7.43;100.00;101724.06;2094568;28;20600;-69
2024/03/22 01:34:01;;;;;;;2.67;1.63;;;;;;;7.62;100.00;101765.16;2089652;28;20454;-69
2024/03/22 01:35:02;;;;;;;3.60;2.10;;;;;;;7.52;100.00;101770.59;2090530;28;20588;-69
2024/03/22 01:36:05;;;;;;;3.40;1.80;;;;;;;7.47;100.00;101759.94;2089428;28;20263;-69
2024/03/22 01:37:06;;;;;;;3.60;1.92;;;;;;;7.41;100.00;101759.50;2088828;28;20566;-69
2024/03/22 01:38:06;;;;;;;3.25;1.83;;;;;;;8.10;100.00;101881.78;2088396;28;20188;-69
2024/03/22 01:39:07;;;;;;;3.50;2.03;;;;;;;7.55;100.00;101801.00;2092345;28;20654;-69
2024/03/22 01:40:08;;;;;;;4.43;2.30;;;;;;;7.81;100.00;101861.47;2091125;28;20193;-69
2024/03/22 01:41:08;;;;;;;3.30;2.10;;;;;;;7.67;100.00;101844.81;2089780;28;20261;-69
2024/03/22 01:42:09;;;;;;;3.13;1.90;;;;;;;7.93;100.00;101886.00;2090869;28;20204;-69
2024/03/22 01:43:09;;;;;;;4.03;2.20;;;;;;;7.80;100.00;101848.84;2089192;28;20200;-69
2024/03/22 01:44:12;;;;;;;4.70;2.67;;;;;;;7.79;100.00;101850.00;2088792;28;20199;-69
2024/03/22 01:45:15;;;;;;;3.78;2.15;;;;;;;7.84;100.00;101855.19;2088802;28;20180;-69
2024/03/22 01:46:15;;;;;;;4.32;2.08;;;;;;;7.57;100.00;101859.31;2093157;28;20679;-69
2024/03/22 01:47:16;;;;;;;6.47;2.57;;;;;;;7.79;100.00;101857.53;2090452;28;20545;-69
2024/03/22 01:48:17;;;;;;;6.50;2.28;;;;;;;7.48;100.00;101836.00;2091530;28;20192;-69
2024/03/22 01:49:18;;;;;;;4.20;1.87;;;;;;;6.48;100.00;101669.38;2089624;28;20192;-69
2024/03/22 01:50:18;;;;;;;3.50;1.83;;;;;;;7.81;100.00;101891.03;2089065;28;20205;-69
2024/03/22 01:51:19;;;;;;;7.37;2.80;;;;;;;7.53;100.00;101855.72;2090394;28;20204;-69
2024/03/22 01:52:19;;;;;;;4.10;2.03;;;;;;;7.83;100.00;101888.66;2092188;28;20176;-69
2024/03/22 01:53:23;;;;;;;6.50;2.17;;;;;;;7.70;100.00;101877.13;2089800;28;20641;-69
2024/03/22 01:54:23;;;;;;;5.72;2.40;;;;;;;7.61;100.00;101864.84;2089064;28;20297;-69
2024/03/22 01:55:24;;;;;;;5.23;2.17;;;;;;;7.78;100.00;101880.75;2090702;28;20204;-69
2024/03/22 01:56:24;;;;;;;5.07;2.27;;;;;;;7.69;100.00;101872.81;2090789;28;20232;-69
2024/03/22 01:57:25;;;;;;;6.30;2.67;;;;;;;7.84;100.00;101893.03;2088827;28;20678;-69
2024/03/22 01:58:25;;;;;;;5.27;2.37;;;;;;;7.13;100.00;101786.06;2092356;28;20249;-69
2024/03/22 01:59:27;;;;;;;3.03;1.70;;;;;;;7.40;100.00;101826.88;2087555;28;20194;-69
2024/03/22 02:00:27;;;;;;;4.90;2.05;;;;;;;7.58;100.00;101852.63;2089070;28;20726;-69
2024/03/22 02:01:28;;;;;;;3.83;1.80;;;;;;;6.89;100.00;101762.63;2090619;28;20253;-69
2024/03/22 02:02:28;;;;;;;2.60;1.73;;;;;;;7.38;100.00;101836.72;2092251;28;20208;-69
2024/03/22 02:03:29;;;;;;;3.27;2.00;;;;;;;7.71;100.00;101888.97;2089997;28;20192;-69
2024/03/22 02:04:29;;;;;;;2.90;1.70;;;;;;;7.76;100.00;101883.91;2093739;28;20220;-69
2024/03/22 02:05:30;;;;;;;3.83;1.57;;;;;;;7.53;100.00;101869.53;2090682;28;20196;-69
2024/03/22 02:06:30;;;;;;;6.97;2.87;;;;;;;6.71;100.00;101752.63;2087425;28;20209;-69
2024/03/22 02:07:31;;;;;;;2.77;1.77;;;;;;;7.51;100.00;101871.88;2090812;28;20667;-69
2024/03/22 02:08:31;;;;;;;4.07;2.07;;;;;;;6.72;100.00;101763.25;2088422;28;20214;-69
2024/03/22 02:09:32;;;;;;;5.50;2.13;;;;;;;7.52;100.00;101891.97;2093351;28;20191;-69
2024/03/22 02:10:33;;;;;;;8.80;2.43;;;;;;;6.82;100.00;101794.84;2093335;28;20196;-69
2024/03/22 02:11:33;;;;;;;8.60;2.20;;;;;;;7.30;100.00;101865.38;2091027;28;20217;-69
2024/03/22 02:12:34;;;;;;;4.07;1.67;;;;;;;7.10;100.00;101826.22;2091078;28;20192;-69
2024/03/22 02:13:35;;;;;;;6.07;1.80;;;;;;;7.10;100.00;101834.50;2085893;28;20197;-69
2024/03/22 02:14:35;;;;;;;5.33;2.43;;;;;;;7.29;100.00;101872.06;2088614;28;20215;-69
2024/03/22 02:15:36;;;;;;;9.03;2.73;;;;;;;7.37;100.00;101885.53;2089436;28;20181;-69
2024/03/22 02:16:36;;;;;;;3.83;1.90;;;;;;;7.45;100.00;101900.19;2090414;28;20185;-69
2024/03/22 02:17:37;;;;;;;8.43;1.90;;;;;;;7.01;100.00;101842.25;2087645;28;20297;-69
2024/03/22 02:18:37;;;;;;;3.83;2.03;;;;;;;7.31;100.00;101887.06;2090301;28;20188;-69
2024/03/22 02:19:38;;;;;;;3.77;2.10;;;;;;;7.11;100.00;101846.28;2090395;28;20265;-69
2024/03/22 02:20:38;;;;;;;3.13;2.07;;;;;;;7.05;100.00;101834.84;2089475;28;21937;-69
2024/03/22 02:21:39;;;;;;;4.77;2.43;;;;;;;7.47;100.00;101895.88;2091151;28;20188;-69
2024/03/22 02:22:39;;;;;;;3.47;1.73;;;;;;;7.45;100.00;101901.00;2092570;28;20563;-69
2024/03/22 02:23:41;;;;;;;4.80;2.10;;;;;;;7.18;100.00;101874.72;2088354;28;20682;-69
2024/03/22 02:24:41;;;;;;;3.90;2.00;;;;;;;7.36;100.00;101897.75;2092565;28;20196;-69
2024/03/22 02:25:42;;;;;;;6.27;2.00;;;;;;;7.11;100.00;101873.84;2089903;28;20223;-69
2024/03/22 02:26:42;;;;;;;5.77;2.00;;;;;;;6.93;100.00;101831.56;2090604;28;20206;-69
2024/03/22 02:27:43;;;;;;;3.20;1.83;;;;;;;7.32;100.00;101890.59;2088701;28;20172;-69
2024/03/22 02:28:43;;;;;;;4.00;2.30;;;;;;;7.13;100.00;101868.78;2091267;28;20193;-69
2024/03/22 02:29:44;;;;;;;4.57;2.07;;;;;;;7.40;100.00;101901.34;2090549;28;20199;-69
2024/03/22 02:30:44;;;;;;;3.77;2.00;;;;;;;7.40;100.00;101904.09;2091918;28;20200;-69
2024/03/22 02:31:45;;;;;;;3.87;2.40;;;;;;;7.06;100.00;101857.66;2090648;28;20223;-69
2024/03/22 02:32:45;;;;;;;3.47;1.63;;;;;;;6.77;100.00;101844.78;2086816;28;20205;-69
2024/03/22 02:33:46;;;;;;;4.30;2.07;;;;;;;7.25;100.00;101904.34;2090486;28;20176;-69
2024/03/22 02:34:47;;;;;;;3.87;2.00;;;;;;;6.82;100.00;101820.41;2092280;28;20242;-69
2024/03/22 02:35:48;;;;;;;3.70;2.30;;;;;;;7.33;100.00;101906.78;2093698;28;20227;-69
2024/03/22 02:36:49;;;;;;;2.47;1.70;;;;;;;7.31;100.00;101933.13;2093200;28;20198;-69
2024/03/22 02:37:50;;;;;;;3.93;2.10;;;;;;;7.34;100.00;101910.34;2090978;28;20191;-69
2024/03/22 02:38:50;;;;;;;4.23;2.07;;;;;;;7.16;100.00;101879.84;2088979;28;20200;-69
2024/03/22 02:39:51;;;;;;;3.87;2.10;;;;;;;7.32;100.00;101899.69;2088341;28;20430;-69
2024/03/22 02:40:52;;;;;;;3.37;1.80;;;;;;;6.66;100.00;101802.56;2090531;28;20196;-69
2024/03/22 02:41:53;;;;;;;5.72;2.13;;;;;;;7.16;100.00;101857.78;2090489;28;20191;-69
2024/03/22 02:42:53;;;;;;;3.57;1.53;;;;;;;7.22;100.00;101874.78;2091052;28;20189;-69
2024/03/22 02:43:54;;;;;;;5.97;1.93;;;;;;;6.67;100.00;101784.84;2092650;28;20191;-69
2024/03/22 02:44:54;;;;;;;3.80;1.87;;;;;;;7.48;100.00;101913.22;2088163;28;20319;-69
2024/03/22 02:45:55;;;;;;;4.37;1.97;;;;;;;6.96;100.00;101825.28;2088936;28;20193;-69
2024/03/22 02:46:55;;;;;;;3.13;1.50;;;;;;;7.20;100.00;101863.31;2090197;28;20196;-69
2024/03/22 02:47:56;;;;;;;3.27;1.60;;;;;;;7.28;100.00;101885.06;2091078;28;20195;-69
2024/03/22 02:48:56;;;;;;;8.13;1.97;;;;;;;7.47;100.00;101914.38;2088871;28;20200;-69
2024/03/22 02:49:57;;;;;;;4.57;2.20;;;;;;;7.54;100.00;101917.22;2091205;28;20626;-69
2024/03/22 02:50:58;;;;;;;5.20;2.13;;;;;;;7.53;100.00;101918.41;2088541;28;21662;-69
2024/03/22 02:51:58;;;;;;;6.80;2.00;;;;;;;7.53;100.00;101921.94;2089930;28;20188;-69
2024/03/22 02:52:59;;;;;;;2.97;1.97;;;;;;;7.50;100.00;101916.38;2091636;28;20744;-70
2024/03/22 02:53:59;;;;;;;5.63;2.23;;;;;;;6.98;100.00;101847.75;2089716;28;20736;-69
2024/03/22 02:54:59;;;;;;;6.57;2.80;;;;;;;7.10;100.00;101864.00;2091530;28;20652;-69
2024/03/22 02:56:01;;;;;;;6.20;2.70;;;;;;;7.45;100.00;101919.50;2090909;28;20194;-69
2024/03/22 02:57:01;;;;;;;3.87;2.63;;;;;;;7.47;100.00;101923.47;2089447;28;20625;-69
2024/03/22 02:58:02;;;;;;;3.97;1.97;;;;;;;6.43;100.00;101757.81;2089849;28;20455;-69
2024/03/22 02:59:03;;;;;;;4.90;2.47;;;;;;;6.80;100.00;101833.78;2093085;28;20260;-69
2024/03/22 03:00:04;;;;;;;4.33;2.20;;;;;;;7.42;100.00;101918.28;2091367;28;20196;-70
2024/03/22 03:01:05;;;;;;;5.67;1.93;;;;;;;7.16;100.00;101896.38;2088807;28;20225;-69
2024/03/22 03:02:06;;;;;;;4.13;2.37;;;;;;;6.60;100.00;101802.09;2090165;28;20471;-69
2024/03/22 03:03:07;;;;;;;3.80;2.30;;;;;;;7.35;100.00;101921.00;2090067;28;20228;-69
2024/03/22 03:04:07;;;;;;;3.63;1.93;;;;;;;7.33;100.00;101923.31;2090278;28;20183;-69
2024/03/22 03:05:08;;;;;;;3.90;2.30;;;;;;;7.09;100.00;101877.00;2090878;28;20192;-69
2024/03/22 03:06:09;;;;;;;6.10;2.07;;;;;;;6.72;100.00;101837.63;2089261;28;20187;-69
2024/03/22 03:07:10;;;;;;;4.90;1.97;;;;;;;5.62;100.00;101652.28;2088590;28;20649;-69
2024/03/22 03:08:10;;;;;;;4.88;1.70;;;;;;;6.47;100.00;101788.94;2089965;28;20444;-69
2024/03/22 03:09:12;;;;;;;7.37;1.83;;;;;;;7.18;100.00;101923.56;2087622;28;20198;-69
2024/03/22 03:10:12;;;;;;;4.53;2.15;;;;;;;7.11;100.00;101917.97;2089211;28;20190;-69
2024/03/22 03:11:14;;;;;;;8.37;2.70;;;;;;;6.85;100.00;101890.50;2089236;28;20330;-69
2024/03/22 03:12:14;;;;;;;7.88;2.60;;;;;;;7.03;100.00;101919.84;2090998;28;20240;-69
2024/03/22 03:13:15;;;;;;;7.43;2.80;;;;;;;6.38;100.00;101827.78;2087126;28;20635;-69
2024/03/22 03:14:16;;;;;;;7.17;2.57;;;;;;;6.72;100.00;101861.63;2088804;28;20196;-69
2024/03/22 03:15:17;;;;;;;4.57;2.27;;;;;;;6.78;100.00;101871.16;2089417;28;20862;-69
2024/03/22 03:16:17;;;;;;;5.15;2.00;;;;;;;6.22;100.00;101787.88;2089929;28;20213;-69
2024/03/22 03:17:18;;;;;;;3.53;1.90;;;;;;;7.08;100.00;101924.25;2091203;28;20181;-69
2024/03/22 03:18:18;;;;;;;4.17;1.87;;;;;;;7.11;100.00;101918.75;2088414;28;20254;-69
2024/03/22 03:19:19;;;;;;;4.77;2.50;;;;;;;7.13;100.00;101921.94;2092203;28;20238;-69
2024/03/22 03:20:19;;;;;;;4.03;2.30;;;;;;;7.13;100.00;101915.63;2089680;28;20251;-69
2024/03/22 03:21:20;;;;;;;3.87;2.10;;;;;;;6.57;100.00;101841.38;2090526;28;20214;-69
2024/03/22 03:22:21;;;;;;;3.07;1.70;;;;;;;6.46;100.00;101826.69;2090012;28;20193;-69
2024/03/22 03:23:21;;;;;;;2.73;1.60;;;;;;;7.15;100.00;101916.84;2093798;28;20187;-70
2024/03/22 03:24:22;;;;;;;4.17;1.87;;;;;;;6.99;100.00;101890.66;2091805;28;20335;-69
2024/03/22 03:25:22;;;;;;;2.93;1.90;;;;;;;6.81;100.00;101862.13;2091714;28;20199;-69
2024/03/22 03:26:23;;;;;;;5.67;2.50;;;;;;;6.54;100.00;101833.88;2089340;28;20194;-69
2024/03/22 03:27:23;;;;;;;5.03;1.67;;;;;;;6.95;100.00;101889.84;2089137;28;20238;-69
2024/03/22 03:28:25;;;;;;;6.43;2.37;;;;;;;6.64;100.00;101843.44;2090852;28;20190;-69
2024/03/22 03:29:26;;;;;;;4.17;2.03;;;;;;;7.02;100.00;101914.72;2093446;28;20186;-69
2024/03/22 03:30:26;;;;;;;4.83;2.17;;;;;;;7.10;100.00;101919.13;2088325;28;20452;-69
2024/03/22 03:31:27;;;;;;;3.20;1.93;;;;;;;6.86;100.00;101884.63;2090743;28;20221;-69
2024/03/22 03:32:28;;;;;;;3.17;2.33;;;;;;;5.94;100.00;101749.00;2090100;28;20683;-69
2024/03/22 03:33:28;;;;;;;5.80;2.20;;;;;;;7.07;100.00;101936.44;2087524;28;20889;-69
2024/03/22 03:34:29;;;;;;;5.00;2.27;;;;;;;6.69;100.00;101854.13;2090079;28;20267;-68
2024/03/22 03:35:29;;;;;;;3.27;1.73;;;;;;;6.48;100.00;101832.63;2090650;28;20249;-69
2024/03/22 03:36:30;;;;;;;5.10;1.87;;;;;;;6.69;100.00;101893.47;2089304;28;20736;-69
2024/03/22 03:37:30;;;;;;;4.53;2.33;;;;;;;6.57;100.00;101876.41;2091696;28;20201;-69
2024/03/22 03:38:31;;;;;;;5.10;2.40;;;;;;;6.88;100.00;101920.06;2087342;28;20206;-69
2024/03/22 03:39:31;;;;;;;5.50;1.90;;;;;;;5.67;100.00;101739.16;2087748;28;20219;-69
2024/03/22 03:40:32;;;;;;;4.23;2.23;;;;;;;6.31;100.00;101840.69;2089135;28;20274;-69
2024/03/22 03:41:32;;;;;;;3.17;1.90;;;;;;;6.49;100.00;101867.28;2091505;28;20187;-69
2024/03/22 03:42:33;;;;;;;3.37;1.87;;;;;;;6.79;100.00;101920.38;2090296;28;20241;-69
2024/03/22 03:43:33;;;;;;;4.40;1.63;;;;;;;6.77;100.00;101927.44;2089421;28;20740;-69
2024/03/22 03:44:34;;;;;;;5.57;2.33;;;;;;;6.52;100.00;101899.56;2089784;28;20680;-69
2024/03/22 03:45:37;;;;;;;4.90;2.17;;;;;;;6.14;100.00;101853.03;2088692;28;20207;-69
2024/03/22 03:46:38;;;;;;;5.32;2.30;;;;;;;6.02;100.00;101838.72;2088120;28;20191;-69
2024/03/22 03:47:38;;;;;;;4.23;2.40;;;;;;;6.10;100.00;101857.69;2091263;28;20185;-69
2024/03/22 03:48:39;;;;;;;3.03;2.10;;;;;;;6.58;100.00;101933.06;2090095;28;20200;-69
2024/03/22 03:49:39;;;;;;;3.83;2.10;;;;;;;6.05;100.00;101858.00;2088298;28;20207;-68
2024/03/22 03:50:40;;;;;;;4.77;2.23;;;;;;;6.37;100.00;101919.84;2087156;28;20195;-68
2024/03/22 03:51:40;;;;;;;4.40;2.70;;;;;;;6.41;100.00;101928.91;2092733;28;20669;-68
2024/03/22 03:52:41;;;;;;;3.33;2.10;;;;;;;6.34;100.00;101930.78;2089068;28;20195;-69
2024/03/22 03:53:41;;;;;;;7.17;2.33;;;;;;;5.78;100.00;101841.84;2089499;28;20180;-68
2024/03/22 03:54:42;;;;;;;5.13;3.13;;;;;;;6.17;100.00;101915.59;2089224;28;20262;-68
2024/03/22 03:55:42;;;;;;;7.53;2.67;;;;;;;5.17;100.00;101778.06;2088849;28;20282;-69
2024/03/22 03:56:43;;;;;;;4.03;2.30;;;;;;;6.24;100.00;101940.47;2088968;28;20649;-69
2024/03/22 03:57:43;;;;;;;7.10;3.00;;;;;;;5.62;100.00;101857.72;2089052;28;26203;-68
2024/03/22 03:58:46;;;;;;;5.43;3.33;;;;;;;6.19;100.00;101938.03;2088909;28;20637;-69
2024/03/22 03:59:46;;;;;;;6.22;2.83;;;;;;;5.75;100.00;101865.41;2087201;28;20187;-69
2024/03/22 04:00:47;;;;;;;3.03;1.97;;;;;;;5.76;100.00;101861.50;2088965;28;20188;-69
2024/03/22 04:01:47;;;;;;;3.67;2.27;;;;;;;5.37;100.00;101801.53;2090310;28;20199;-69
2024/03/22 04:02:51;;;;;;;4.70;2.13;;;;;;;5.46;100.00;101830.38;2089249;28;20366;-69
2024/03/22 04:03:51;;;;;;;3.47;1.73;;;;;;;6.20;100.00;101925.09;2088914;28;20620;-68
2024/03/22 04:04:53;;;;;;;4.93;3.17;;;;;;;6.27;100.00;101931.50;2088895;28;20207;-68
2024/03/22 04:05:57;;;;;;;5.07;2.80;;;;;;;5.98;100.00;101890.94;2092096;28;20733;-69
2024/03/22 04:06:57;;;;;;;3.33;1.80;;;;;;;6.26;100.00;101934.59;2091845;28;20715;-69
2024/03/22 04:07:58;;;;;;;3.93;2.10;;;;;;;5.51;100.00;101810.81;2088879;28;20697;-68
2024/03/22 04:08:59;;;;;;;3.70;2.30;;;;;;;6.03;100.00;101881.56;2087376;28;20203;-69
2024/03/22 04:10:02;;;;;;;3.77;2.00;;;;;;;6.11;100.00;101892.31;2088442;28;20192;-69
2024/03/22 04:11:03;;;;;;;4.28;2.33;;;;;;;6.37;100.00;101933.59;2090345;28;20204;-69
2024/03/22 04:12:04;;;;;;;4.70;2.20;;;;;;;6.11;100.00;101869.50;2088399;28;20215;-69
2024/03/22 04:13:04;;;;;;;4.20;2.40;;;;;;;6.41;100.00;101930.88;2089390;28;20559;-69
2024/03/22 04:14:05;;;;;;;3.17;2.00;;;;;;;6.45;100.00;101931.72;2089644;28;20279;-69
2024/03/22 04:15:07;;;;;;;8.60;2.40;;;;;;;6.41;100.00;101903.34;2088794;28;20265;-69
2024/03/22 04:16:08;;;;;;;4.10;2.35;;;;;;;6.21;100.00;101875.16;2089773;28;20195;-69
2024/03/22 04:17:08;;;;;;;4.77;2.47;;;;;;;6.43;100.00;101903.75;2087989;28;20257;-69
2024/03/22 04:18:09;;;;;;;13.00;2.97;;;;;;;6.66;100.00;101934.78;2087075;28;20267;-69
2024/03/22 04:19:09;;;;;;;7.93;3.10;;;;;;;6.14;100.00;101849.47;2093243;28;20198;-69
2024/03/22 04:20:11;;;;;;;17.13;3.67;;;;;;;5.95;100.00;101819.34;2091478;28;20203;-69
2024/03/22 04:21:11;;;;;;;11.57;2.83;;;;;;;6.20;100.00;101864.53;2089499;28;20663;-69
2024/03/22 04:22:12;;;;;;;8.67;3.83;;;;;;;6.64;100.00;101918.59;2089689;28;20216;-69
2024/03/22 04:23:12;;;;;;;5.23;2.70;;;;;;;6.56;100.00;101900.41;2087222;28;20196;-69
2024/03/22 04:24:13;;;;;;;5.97;2.47;;;;;;;6.85;100.00;101935.41;2088559;28;20181;-69
2024/03/22 04:25:13;;;;;;;5.40;2.67;;;;;;;6.32;100.00;101859.59;2091983;28;20576;-69
2024/03/22 04:26:15;;;;;;;5.63;1.90;;;;;;;6.59;100.00;101909.88;2090864;28;20551;-69
2024/03/22 04:27:15;;;;;;;3.92;2.17;;;;;;;6.36;100.00;101870.63;2088695;28;20279;-69
2024/03/22 04:28:16;;;;;;;4.47;2.33;;;;;;;6.89;100.00;101949.22;2086354;28;20499;-69
2024/03/22 04:29:16;;;;;;;5.37;2.03;;;;;;;6.84;100.00;101936.56;2091651;28;20743;-69
2024/03/22 04:30:17;;;;;;;5.47;2.43;;;;;;;6.78;100.00;101927.06;2090609;28;20224;-69
2024/03/22 04:31:17;;;;;;;3.57;2.13;;;;;;;6.67;100.00;101912.34;2092430;28;20201;-69
2024/03/22 04:32:18;;;;;;;5.20;2.57;;;;;;;5.94;100.00;101798.53;2088687;28;20203;-69
2024/03/22 04:33:18;;;;;;;5.43;2.40;;;;;;;6.41;100.00;101882.09;2088485;28;20312;-69
2024/03/22 04:34:19;;;;;;;5.63;2.50;;;;;;;6.98;100.00;101955.22;2089950;28;20650;-69
2024/03/22 04:35:19;;;;;;;4.13;2.37;;;;;;;6.74;100.00;101912.44;2087944;28;20624;-69
2024/03/22 04:36:20;;;;;;;4.27;2.80;;;;;;;7.01;100.00;101957.22;2087817;28;20188;-69
2024/03/22 04:37:21;;;;;;;4.03;2.30;;;;;;;6.95;100.00;101954.03;2092179;28;20207;-69
2024/03/22 04:38:22;;;;;;;4.83;2.40;;;;;;;6.93;100.00;101956.34;2089980;28;20191;-69
2024/03/22 04:39:24;;;;;;;4.40;2.45;;;;;;;6.89;100.00;101947.25;2091695;28;20213;-69
2024/03/22 04:40:25;;;;;;;4.85;2.67;;;;;;;6.56;100.00;101889.38;2090045;28;20641;-69
2024/03/22 04:41:25;;;;;;;4.65;2.70;;;;;;;6.99;100.00;101963.13;2090702;28;20888;-69
2024/03/22 04:42:26;;;;;;;7.83;3.13;;;;;;;6.36;100.00;101860.41;2087232;28;20269;-69